Time;durP1;ratioP1;P1;durP2;ratioP2;P2;SDS_P1;SDS_P2;PMS_P1;PMS_P2;Temp;Humidity;BMP_temperature;BMP_pressure;BME280_temperature;BME280_humidity;BME280_pressure;Samples;Min_cycle;Max_cycle;Signal;HPM_P1;HPM_P2
2022/04/02 00:00:14;;;;;;;5.55;2.60;;;0.80;99.90;;;;;;5108995;28;20473;-73
2022/04/02 00:02:39;;;;;;;7.20;2.20;;;0.80;99.90;;;;;;5103518;27;20042;-73
2022/04/02 00:05:05;;;;;;;5.15;2.60;;;0.80;99.90;;;;;;5110976;28;20126;-73
2022/04/02 00:07:31;;;;;;;5.13;2.10;;;0.80;99.90;;;;;;5108180;28;20541;-73
2022/04/02 00:09:56;;;;;;;7.47;2.67;;;0.70;99.90;;;;;;5103451;28;20032;-73
2022/04/02 00:12:22;;;;;;;5.78;2.28;;;0.70;99.90;;;;;;5105645;28;20047;-73
2022/04/02 00:14:48;;;;;;;7.28;3.08;;;0.70;99.90;;;;;;5090281;28;20549;-74
2022/04/02 00:17:13;;;;;;;3.78;2.10;;;0.70;99.90;;;;;;5098818;27;20039;-74
2022/04/02 00:19:39;;;;;;;9.38;3.45;;;0.70;99.90;;;;;;5103253;28;20052;-74
2022/04/02 00:22:04;;;;;;;14.38;4.88;;;0.70;99.90;;;;;;5100523;27;20035;-74
2022/04/02 00:24:30;;;;;;;6.47;2.40;;;0.60;99.90;;;;;;5089557;28;20048;-74
2022/04/02 00:26:56;;;;;;;5.28;2.97;;;0.60;99.90;;;;;;5092822;28;20079;-74
2022/04/02 00:29:21;;;;;;;5.20;2.30;;;0.60;99.90;;;;;;5107943;28;20067;-74
2022/04/02 00:31:47;;;;;;;3.38;1.95;;;0.60;99.90;;;;;;5111636;27;20039;-74
2022/04/02 00:34:12;;;;;;;3.65;2.50;;;0.60;99.90;;;;;;5096907;28;20044;-74
2022/04/02 00:36:38;;;;;;;5.07;3.20;;;0.60;99.90;;;;;;5110443;27;20043;-74
2022/04/02 00:39:05;;;;;;;4.75;2.53;;;0.60;99.90;;;;;;5108502;28;20445;-74
2022/04/02 00:41:31;;;;;;;7.70;2.80;;;0.60;99.90;;;;;;5110246;28;20048;-74
2022/04/02 00:43:59;;;;;;;9.35;2.90;;;0.60;99.90;;;;;;5096387;27;20044;-76
2022/04/02 00:46:25;;;;;;;3.10;2.47;;;0.60;99.90;;;;;;5103649;27;20035;-74
2022/04/02 00:48:51;;;;;;;3.88;2.30;;;0.60;99.90;;;;;;5130625;27;20035;-74
2022/04/02 00:51:18;;;;;;;9.63;4.40;;;0.60;99.90;;;;;;5130851;27;20500;-74
2022/04/02 00:53:47;;;;;;;3.10;2.63;;;0.60;99.90;;;;;;5124343;27;20372;-74
2022/04/02 00:56:14;;;;;;;3.33;2.10;;;0.60;99.90;;;;;;5100663;28;20502;-74
2022/04/02 00:58:40;;;;;;;5.43;3.00;;;0.50;99.90;;;;;;5109487;27;20047;-75
2022/04/02 01:01:08;;;;;;;6.38;3.28;;;0.50;99.90;;;;;;5105096;28;20508;-74
2022/04/02 01:03:35;;;;;;;3.45;2.10;;;0.50;99.90;;;;;;5108719;27;20579;-74
2022/04/02 01:06:01;;;;;;;7.50;2.53;;;0.40;99.90;;;;;;5109495;28;20560;-74
2022/04/02 01:08:27;;;;;;;5.07;2.10;;;0.40;99.90;;;;;;5093478;28;20027;-74
2022/04/02 01:10:55;;;;;;;5.40;2.38;;;0.40;99.90;;;;;;5098954;28;20096;-74
2022/04/02 01:13:22;;;;;;;6.18;3.05;;;0.30;99.90;;;;;;5106555;28;20063;-74
2022/04/02 01:15:48;;;;;;;5.47;2.38;;;0.30;99.90;;;;;;5110116;28;20062;-74
2022/04/02 01:18:14;;;;;;;8.23;2.95;;;0.30;99.90;;;;;;5103160;28;20031;-74
2022/04/02 01:20:40;;;;;;;6.07;3.83;;;0.30;99.90;;;;;;5102344;28;20039;-74
2022/04/02 01:23:05;;;;;;;5.15;2.97;;;0.30;99.90;;;;;;5105368;28;20031;-74
2022/04/02 01:25:34;;;;;;;7.35;3.17;;;0.30;99.90;;;;;;5109377;28;20683;-74
2022/04/02 01:28:00;;;;;;;4.18;2.55;;;0.30;99.90;;;;;;5121549;27;20197;-74
2022/04/02 01:30:27;;;;;;;8.13;2.65;;;0.30;99.90;;;;;;5122369;27;20040;-74
2022/04/02 01:32:53;;;;;;;6.25;2.60;;;0.20;99.90;;;;;;5122268;27;20055;-74
2022/04/02 01:35:22;;;;;;;5.60;2.42;;;0.20;99.90;;;;;;5110556;28;20139;-74
2022/04/02 01:37:49;;;;;;;4.97;2.60;;;0.20;99.90;;;;;;5110949;28;20119;-74
2022/04/02 01:40:15;;;;;;;6.63;3.03;;;0.20;99.90;;;;;;5108902;27;20521;-75
2022/04/02 01:42:41;;;;;;;7.10;3.35;;;0.30;99.90;;;;;;5120494;27;20038;-74
2022/04/02 01:45:07;;;;;;;7.05;2.83;;;0.30;99.90;;;;;;5121028;27;20039;-74
2022/04/02 01:47:33;;;;;;;5.93;3.22;;;0.30;99.90;;;;;;5107108;28;20047;-72
2022/04/02 01:49:59;;;;;;;6.65;3.00;;;0.20;99.90;;;;;;5122367;27;20408;-74
2022/04/02 01:52:24;;;;;;;5.32;2.53;;;0.20;99.90;;;;;;5129461;27;20115;-74
2022/04/02 01:54:50;;;;;;;5.68;2.38;;;0.20;99.90;;;;;;5100219;28;20051;-73
2022/04/02 01:57:16;;;;;;;4.63;2.40;;;0.20;99.90;;;;;;5109218;28;20031;-72
2022/04/02 01:59:44;;;;;;;7.90;3.42;;;0.20;99.90;;;;;;5108618;28;20048;-74
2022/04/02 02:02:10;;;;;;;5.55;2.45;;;0.20;99.90;;;;;;5108603;28;20447;-73
2022/04/02 02:04:37;;;;;;;4.55;2.72;;;0.10;99.90;;;;;;5107638;28;20357;-73
2022/04/02 02:07:04;;;;;;;5.65;2.42;;;0.10;99.90;;;;;;5108229;28;20494;-74
2022/04/02 02:09:30;;;;;;;7.50;3.35;;;0.10;99.90;;;;;;5090521;28;20044;-74
2022/04/02 02:11:56;;;;;;;4.78;2.55;;;0.10;99.90;;;;;;5100786;28;20035;-74
2022/04/02 02:14:22;;;;;;;8.00;3.85;;;0.10;99.90;;;;;;5105881;28;20044;-73
2022/04/02 02:16:47;;;;;;;9.10;4.03;;;0.10;99.90;;;;;;5106381;28;20559;-73
2022/04/02 02:19:13;;;;;;;8.23;3.22;;;0.10;99.90;;;;;;5104206;28;20052;-73
2022/04/02 02:21:39;;;;;;;7.15;2.88;;;0.00;99.90;;;;;;5108965;28;20063;-73
2022/04/02 02:24:05;;;;;;;6.88;3.45;;;0.10;99.90;;;;;;5095845;28;20971;-74
2022/04/02 02:26:30;;;;;;;8.52;3.17;;;0.10;99.90;;;;;;5096535;28;20475;-75
2022/04/02 02:28:56;;;;;;;5.22;2.90;;;0.10;99.90;;;;;;5096536;28;20043;-73
2022/04/02 02:31:22;;;;;;;3.75;2.40;;;0.10;99.90;;;;;;5107312;28;20482;-75
2022/04/02 02:36:36;;;;;;;6.15;2.70;;;0.00;99.90;;;;;;5073418;28;20561;-73
2022/04/02 02:39:02;;;;;;;11.52;2.35;;;0.00;99.90;;;;;;5100944;28;20031;-74
2022/04/02 02:41:28;;;;;;;6.97;2.85;;;0.00;99.90;;;;;;5107853;28;20062;-74
2022/04/02 02:43:53;;;;;;;11.45;3.67;;;0.00;99.90;;;;;;5093636;28;20036;-73
2022/04/02 02:46:19;;;;;;;6.60;2.58;;;-0.10;99.90;;;;;;5105197;28;20118;-75
2022/04/02 02:48:45;;;;;;;6.18;2.40;;;-0.10;99.90;;;;;;5104226;28;20478;-73
2022/04/02 02:51:11;;;;;;;9.55;2.97;;;-0.10;99.90;;;;;;5106985;28;20047;-73
2022/04/02 02:53:37;;;;;;;4.30;2.35;;;-0.10;99.90;;;;;;5097932;28;20043;-73
2022/04/02 02:56:02;;;;;;;6.07;3.63;;;-0.30;99.90;;;;;;5109174;28;20043;-73
2022/04/02 02:58:28;;;;;;;4.13;2.22;;;-0.40;99.90;;;;;;5106819;28;20040;-74
2022/04/02 03:00:54;;;;;;;3.92;2.33;;;-0.40;99.90;;;;;;5112719;27;20043;-73
2022/04/02 03:03:22;;;;;;;4.03;1.98;;;-0.50;99.90;;;;;;5098990;28;20044;-73
2022/04/02 03:05:48;;;;;;;6.65;2.58;;;-0.50;99.90;;;;;;5105585;28;20052;-73
2022/04/02 03:08:13;;;;;;;6.15;2.45;;;-0.50;99.90;;;;;;5095618;28;20044;-74
2022/04/02 03:10:40;;;;;;;4.95;2.78;;;-0.50;99.90;;;;;;5094917;28;20367;-74
2022/04/02 03:13:06;;;;;;;8.15;3.15;;;-0.40;99.90;;;;;;5090701;28;20083;-73
2022/04/02 03:15:32;;;;;;;3.83;1.85;;;-0.40;99.90;;;;;;5098927;27;20067;-74
2022/04/02 03:18:06;;;;;;;4.35;2.42;;;-0.40;99.90;;;;;;5110942;27;20447;-73
2022/04/02 03:20:32;;;;;;;6.43;2.00;;;-0.40;99.90;;;;;;5097612;28;20451;-73
2022/04/02 03:22:58;;;;;;;2.33;1.90;;;-0.30;99.90;;;;;;5106595;27;20043;-73
2022/04/02 03:25:24;;;;;;;35.65;3.80;;;-0.30;99.90;;;;;;5105160;28;20120;-74
2022/04/02 03:27:50;;;;;;;4.07;1.63;;;-0.30;99.90;;;;;;5105320;28;20059;-73
2022/04/02 03:30:18;;;;;;;7.88;2.00;;;-0.30;99.90;;;;;;5111372;28;20554;-73
2022/04/02 03:32:44;;;;;;;9.07;2.95;;;-0.30;99.90;;;;;;5112059;27;20036;-73
2022/04/02 03:35:18;;;;;;;4.70;2.40;;;-0.40;99.90;;;;;;5097004;28;20045;-73
2022/04/02 03:37:46;;;;;;;8.82;1.70;;;-0.40;99.90;;;;;;5111999;28;20102;-73
2022/04/02 03:40:15;;;;;;;9.38;2.58;;;-0.30;99.90;;;;;;5104747;28;20409;-74
2022/04/02 03:42:44;;;;;;;3.10;2.25;;;-0.40;99.90;;;;;;5110746;28;20044;-73
2022/04/02 03:45:11;;;;;;;2.95;1.83;;;-0.40;99.90;;;;;;5094555;27;20039;-74
2022/04/02 03:47:36;;;;;;;11.25;2.00;;;-0.40;99.90;;;;;;5110162;28;20383;-73
2022/04/02 03:50:03;;;;;;;4.03;1.67;;;-0.40;99.90;;;;;;5102090;27;20093;-74
2022/04/02 03:52:29;;;;;;;2.50;1.67;;;-0.40;99.90;;;;;;5099772;28;20493;-74
2022/04/02 03:54:54;;;;;;;7.47;2.33;;;-0.40;99.90;;;;;;5108915;28;20047;-73
2022/04/02 03:57:21;;;;;;;4.57;1.75;;;-0.40;99.90;;;;;;5100545;27;20036;-73
2022/04/02 03:59:47;;;;;;;4.35;1.95;;;-0.40;99.90;;;;;;5108479;28;20119;-73
2022/04/02 04:02:12;;;;;;;1.95;1.40;;;-0.40;99.90;;;;;;5107035;28;20123;-74
2022/04/02 04:04:39;;;;;;;8.50;3.00;;;-0.40;99.90;;;;;;5093688;28;20040;-74
2022/04/02 04:07:05;;;;;;;5.45;1.85;;;-0.40;99.90;;;;;;5111366;28;20051;-73
2022/04/02 04:09:31;;;;;;;5.10;1.38;;;-0.40;99.90;;;;;;5098822;28;20085;-74
2022/04/02 04:11:56;;;;;;;6.65;2.00;;;-0.50;99.90;;;;;;5099777;28;20032;-75
2022/04/02 04:14:24;;;;;;;7.05;1.30;;;-0.50;99.90;;;;;;5099297;28;20047;-73
2022/04/02 04:16:50;;;;;;;5.57;1.75;;;-0.50;99.90;;;;;;5101151;28;20086;-73
2022/04/02 04:19:16;;;;;;;4.53;1.75;;;-0.40;99.90;;;;;;5100599;27;20047;-74
2022/04/02 04:21:43;;;;;;;3.83;1.60;;;-0.30;99.90;;;;;;5099828;28;20047;-74
2022/04/02 04:24:10;;;;;;;3.72;1.70;;;-0.30;99.90;;;;;;5100809;28;20101;-74
2022/04/02 04:26:36;;;;;;;3.03;1.05;;;-0.30;99.90;;;;;;5099677;28;20047;-74
2022/04/02 04:29:02;;;;;;;3.22;1.02;;;-0.30;99.90;;;;;;5096583;27;20032;-74
2022/04/02 04:31:28;;;;;;;8.00;1.58;;;-0.30;99.90;;;;;;5105881;27;20134;-74
2022/04/02 04:33:54;;;;;;;3.45;1.45;;;-0.30;99.90;;;;;;5099940;28;20151;-73
2022/04/02 04:36:19;;;;;;;4.30;1.60;;;-0.30;99.90;;;;;;5110090;28;20051;-73
2022/04/02 04:38:46;;;;;;;3.25;1.63;;;-0.30;99.90;;;;;;5102920;28;20076;-74
2022/04/02 04:41:13;;;;;;;2.55;1.35;;;-0.20;99.90;;;;;;5110976;28;20075;-74
2022/04/02 04:43:41;;;;;;;1.95;0.88;;;-0.20;99.90;;;;;;5096551;28;20040;-74
2022/04/02 04:46:07;;;;;;;3.22;2.15;;;-0.20;99.90;;;;;;5110222;28;20101;-74
2022/04/02 04:48:35;;;;;;;4.40;1.05;;;-0.20;99.90;;;;;;5103832;27;20383;-74
2022/04/02 04:51:01;;;;;;;3.90;1.25;;;-0.20;99.90;;;;;;5107830;28;20122;-74
2022/04/02 04:53:27;;;;;;;1.58;1.08;;;-0.20;99.90;;;;;;5107673;28;20043;-73
2022/04/02 04:55:52;;;;;;;4.05;1.13;;;-0.20;99.90;;;;;;5109894;28;20039;-73
2022/04/02 04:58:18;;;;;;;6.25;1.23;;;-0.20;99.90;;;;;;5107972;28;20031;-73
2022/04/02 05:00:44;;;;;;;4.78;1.25;;;-0.10;99.90;;;;;;5092893;28;20069;-74
2022/04/02 05:03:10;;;;;;;4.22;1.70;;;-0.10;99.90;;;;;;5102723;27;20405;-74
2022/04/02 05:05:37;;;;;;;3.97;0.80;;;0.00;99.90;;;;;;5098377;28;20426;-74
2022/04/02 05:08:03;;;;;;;3.15;0.85;;;0.00;99.90;;;;;;5096858;28;20040;-74
2022/04/02 05:10:29;;;;;;;5.90;0.98;;;0.00;99.90;;;;;;5109139;27;20047;-73
2022/04/02 05:12:55;;;;;;;3.13;1.38;;;0.00;99.90;;;;;;5104894;28;20043;-74
2022/04/02 05:15:20;;;;;;;8.82;2.78;;;0.00;99.90;;;;;;5105870;28;20493;-72
2022/04/02 05:17:46;;;;;;;3.80;1.42;;;0.10;99.90;;;;;;5105103;28;20044;-73
2022/04/02 05:20:14;;;;;;;12.70;1.40;;;0.10;99.90;;;;;;5100959;28;20044;-73
2022/04/02 05:22:41;;;;;;;4.75;1.00;;;0.20;99.90;;;;;;5103795;28;20059;-73
2022/04/02 05:25:07;;;;;;;4.38;1.08;;;0.20;99.90;;;;;;5113258;27;20140;-73
2022/04/02 05:27:33;;;;;;;2.58;0.80;;;0.30;99.90;;;;;;5088454;28;20048;-74
2022/04/02 05:30:02;;;;;;;4.45;1.27;;;0.30;99.90;;;;;;5109841;28;20036;-73
2022/04/02 05:32:28;;;;;;;3.40;1.30;;;0.30;99.90;;;;;;5109470;27;20043;-73
2022/04/02 05:34:54;;;;;;;4.75;1.50;;;0.40;99.90;;;;;;5110715;28;20047;-73
2022/04/02 05:37:20;;;;;;;4.68;1.30;;;0.40;99.90;;;;;;5096505;28;20108;-74
2022/04/02 05:39:46;;;;;;;6.68;2.17;;;0.40;99.90;;;;;;5112541;28;20115;-73
2022/04/02 05:42:12;;;;;;;6.05;0.93;;;0.40;99.90;;;;;;5108147;28;20076;-74
2022/04/02 05:44:39;;;;;;;2.28;0.98;;;0.50;99.90;;;;;;5096431;27;20044;-74
2022/04/02 05:47:05;;;;;;;3.13;1.15;;;0.40;99.90;;;;;;5108405;28;20097;-73
2022/04/02 05:49:31;;;;;;;2.85;1.58;;;0.50;99.90;;;;;;5118285;27;20093;-75
2022/04/02 05:51:57;;;;;;;4.47;1.63;;;0.60;99.90;;;;;;5111226;28;20035;-75
2022/04/02 05:54:23;;;;;;;2.92;1.35;;;0.60;99.90;;;;;;5128545;27;20493;-75
2022/04/02 05:56:50;;;;;;;4.53;1.67;;;0.70;99.90;;;;;;5111729;27;20039;-75
2022/04/02 05:59:16;;;;;;;3.38;1.30;;;0.70;99.90;;;;;;5101230;28;20118;-75
2022/04/02 06:01:41;;;;;;;3.65;1.17;;;0.70;99.90;;;;;;5094354;28;20132;-75
2022/04/02 06:04:07;;;;;;;3.63;1.17;;;0.80;99.90;;;;;;5104467;28;20044;-73
2022/04/02 06:06:32;;;;;;;5.25;1.30;;;0.80;99.90;;;;;;5098137;28;20072;-74
2022/04/02 06:08:58;;;;;;;1.58;0.80;;;0.80;99.90;;;;;;5096005;28;20401;-75
2022/04/02 06:11:24;;;;;;;6.07;1.48;;;0.80;99.90;;;;;;5108867;28;20122;-75
2022/04/02 06:13:50;;;;;;;6.35;1.23;;;0.80;99.90;;;;;;5107223;28;20039;-74
2022/04/02 06:16:16;;;;;;;2.90;1.67;;;0.80;99.90;;;;;;5100159;28;20040;-74
2022/04/02 06:18:43;;;;;;;1.10;0.60;;;0.80;99.90;;;;;;5103894;28;20047;-74
2022/04/02 06:21:08;;;;;;;4.25;1.20;;;0.80;99.90;;;;;;5105026;28;20128;-75
2022/04/02 06:23:34;;;;;;;2.72;1.40;;;0.80;99.90;;;;;;5110379;28;20119;-75
2022/04/02 06:26:00;;;;;;;7.43;1.95;;;0.80;99.90;;;;;;5113043;28;20055;-74
2022/04/02 06:28:25;;;;;;;4.45;2.05;;;0.80;99.90;;;;;;5110910;27;20066;-75
2022/04/02 06:30:51;;;;;;;6.93;1.20;;;0.80;99.90;;;;;;5103379;28;20492;-74
2022/04/02 06:33:17;;;;;;;4.18;1.15;;;0.90;99.90;;;;;;5102180;27;20082;-74
2022/04/02 06:35:43;;;;;;;2.85;1.48;;;1.00;99.90;;;;;;5111973;28;20071;-74
2022/04/02 06:38:08;;;;;;;3.25;1.70;;;1.00;99.90;;;;;;5109122;27;20050;-75
2022/04/02 06:40:34;;;;;;;5.35;1.48;;;1.10;99.90;;;;;;5092087;28;20043;-74
2022/04/02 06:43:00;;;;;;;2.17;1.33;;;1.20;99.90;;;;;;5100566;28;20039;-74
2022/04/02 06:45:26;;;;;;;3.20;1.27;;;1.20;99.90;;;;;;5090543;28;20047;-74
2022/04/02 06:47:52;;;;;;;2.13;1.30;;;1.20;99.90;;;;;;5103031;28;20048;-74
2022/04/02 06:50:18;;;;;;;6.80;1.90;;;1.30;99.90;;;;;;5090892;28;20162;-74
2022/04/02 06:52:44;;;;;;;4.50;1.33;;;1.30;99.90;;;;;;5094116;28;20397;-74
2022/04/02 06:55:12;;;;;;;5.30;2.20;;;1.40;99.90;;;;;;5104289;28;20051;-74
2022/04/02 06:57:55;;;;;;;3.05;1.13;;;1.40;99.90;;;;;;5108892;28;20550;-74
2022/04/02 07:00:21;;;;;;;7.38;1.77;;;1.50;99.90;;;;;;5091501;28;20040;-73
2022/04/02 07:02:47;;;;;;;4.07;2.08;;;1.50;99.90;;;;;;5099739;28;20032;-74
2022/04/02 07:05:12;;;;;;;6.32;1.52;;;1.50;99.90;;;;;;5108113;28;20051;-74
2022/04/02 07:07:38;;;;;;;3.00;1.05;;;1.50;99.90;;;;;;5091345;28;20036;-74
2022/04/02 07:10:07;;;;;;;3.97;1.40;;;1.60;99.90;;;;;;5098660;28;20482;-74
2022/04/02 07:12:33;;;;;;;5.68;1.40;;;1.50;99.90;;;;;;5103821;28;20036;-74
2022/04/02 07:15:00;;;;;;;2.00;1.35;;;1.60;99.90;;;;;;5110974;27;20051;-75
2022/04/02 07:17:27;;;;;;;3.58;1.58;;;1.60;99.90;;;;;;5101095;28;20093;-74
2022/04/02 07:19:55;;;;;;;2.78;1.60;;;1.70;99.90;;;;;;5093002;28;20044;-71
2022/04/02 07:22:22;;;;;;;3.50;1.70;;;1.80;99.90;;;;;;5106232;27;20434;-73
2022/04/02 07:24:49;;;;;;;3.03;1.60;;;1.90;99.90;;;;;;5119951;27;20134;-73
2022/04/02 07:27:16;;;;;;;7.97;1.90;;;2.00;99.90;;;;;;5095017;28;20043;-73
2022/04/02 07:29:42;;;;;;;5.30;1.98;;;2.20;99.90;;;;;;5106541;28;20075;-74
2022/04/02 07:32:09;;;;;;;6.50;1.95;;;2.40;99.90;;;;;;5093081;28;20072;-73
2022/04/02 07:34:35;;;;;;;4.22;1.38;;;2.50;99.90;;;;;;5097642;28;20046;-73
2022/04/02 07:37:19;;;;;;;2.38;1.40;;;2.50;99.90;;;;;;5098606;28;20064;-74
2022/04/02 07:39:53;;;;;;;6.18;2.63;;;2.50;99.90;;;;;;5092968;28;20104;-74
2022/04/02 07:42:26;;;;;;;4.55;2.03;;;2.40;99.90;;;;;;5100772;28;20132;-73
2022/04/02 07:45:03;;;;;;;3.20;2.00;;;2.30;99.90;;;;;;5090874;28;20122;-73
2022/04/02 07:47:31;;;;;;;4.15;1.73;;;2.30;99.90;;;;;;5107034;28;20123;-74
2022/04/02 07:50:09;;;;;;;7.60;2.05;;;2.30;99.90;;;;;;5111695;27;20044;-73
2022/04/02 07:52:38;;;;;;;3.97;1.15;;;2.30;99.90;;;;;;5101501;28;20055;-73
2022/04/02 07:55:08;;;;;;;6.80;1.83;;;2.30;99.90;;;;;;5109048;27;20084;-73
2022/04/02 07:57:46;;;;;;;6.05;2.42;;;2.30;99.90;;;;;;5094029;28;20036;-73
2022/04/02 08:00:14;;;;;;;5.13;2.40;;;2.20;99.90;;;;;;5091317;28;20491;-73
2022/04/02 08:02:43;;;;;;;5.47;2.20;;;2.30;99.90;;;;;;5091192;27;20055;-75
2022/04/02 08:05:14;;;;;;;3.67;1.90;;;2.40;99.90;;;;;;5098125;28;20044;-73
2022/04/02 08:07:55;;;;;;;4.25;1.63;;;2.30;99.90;;;;;;5095053;27;20067;-73
2022/04/02 08:10:23;;;;;;;7.60;2.45;;;2.30;99.90;;;;;;5101992;28;20036;-74
2022/04/02 08:12:49;;;;;;;6.07;2.20;;;2.30;99.90;;;;;;5089593;28;20102;-75
2022/04/02 08:15:17;;;;;;;3.83;2.03;;;2.30;99.90;;;;;;5109441;28;20035;-72
2022/04/02 08:17:47;;;;;;;8.80;2.92;;;2.40;99.90;;;;;;5091297;28;20131;-73
2022/04/02 08:20:16;;;;;;;2.50;1.52;;;2.40;99.90;;;;;;5099056;28;20040;-72
2022/04/02 08:22:43;;;;;;;5.25;2.10;;;2.50;99.90;;;;;;5108434;28;20051;-73
2022/04/02 08:25:10;;;;;;;3.22;2.10;;;2.50;99.90;;;;;;5107673;27;20048;-73
2022/04/02 08:28:03;;;;;;;4.03;1.50;;;2.60;99.90;;;;;;5103631;27;20079;-74
2022/04/02 08:30:32;;;;;;;4.65;1.88;;;2.70;99.90;;;;;;5109791;28;20048;-73
2022/04/02 08:33:29;;;;;;;7.13;2.37;;;2.80;99.90;;;;;;5109270;27;20055;-73
2022/04/02 08:36:11;;;;;;;7.38;2.22;;;2.90;99.90;;;;;;5109255;27;20308;-74
2022/04/02 08:38:58;;;;;;;3.42;1.08;;;3.20;99.90;;;;;;5097088;27;20044;-75
2022/04/02 08:41:45;;;;;;;3.65;2.05;;;3.40;99.90;;;;;;5108315;28;20047;-74
2022/04/02 08:44:38;;;;;;;4.65;1.52;;;3.30;99.90;;;;;;5101906;28;20096;-75
2022/04/02 08:47:40;;;;;;;13.07;2.28;;;3.60;99.90;;;;;;5089711;28;20044;-75
2022/04/02 08:50:12;;;;;;;1.83;0.90;;;3.80;99.90;;;;;;5104901;28;20040;-75
2022/04/02 08:52:44;;;;;;;3.80;1.48;;;4.00;99.90;;;;;;5093510;27;20063;-75
2022/04/02 08:55:18;;;;;;;4.50;1.30;;;4.30;99.90;;;;;;5095019;28;20039;-76
2022/04/02 08:58:22;;;;;;;2.42;1.27;;;4.30;99.90;;;;;;5103278;28;20366;-75
2022/04/02 09:01:07;;;;;;;2.85;1.08;;;4.50;99.90;;;;;;5088012;28;20054;-74
2022/04/02 09:03:38;;;;;;;3.30;1.05;;;4.90;99.90;;;;;;5105915;28;20058;-74
2022/04/02 09:06:51;;;;;;;5.90;1.02;;;4.80;99.90;;;;;;5106488;28;20043;-74
2022/04/02 09:09:26;;;;;;;3.22;1.10;;;4.80;99.90;;;;;;5059518;28;20079;-74
2022/04/02 09:12:23;;;;;;;8.32;1.58;;;4.60;99.90;;;;;;5106440;28;20051;-74
2022/04/02 09:15:12;;;;;;;1.45;0.70;;;4.80;99.90;;;;;;5106951;28;20063;-75
2022/04/02 09:18:05;;;;;;;3.30;1.58;;;4.80;99.90;;;;;;5107104;28;20048;-73
2022/04/02 09:21:07;;;;;;;5.13;1.25;;;4.90;99.90;;;;;;5106218;28;20448;-74
2022/04/02 09:23:48;;;;;;;10.02;1.52;;;5.20;99.90;;;;;;5071342;28;20087;-74
2022/04/02 09:26:38;;;;;;;1.75;0.90;;;5.10;99.90;;;;;;5109000;28;20043;-74
2022/04/02 09:29:29;;;;;;;4.93;1.15;;;4.80;99.90;;;;;;5102887;28;20043;-75
2022/04/02 09:32:36;;;;;;;9.20;2.40;;;4.60;99.90;;;;;;5106183;28;20382;-75
2022/04/02 09:35:31;;;;;;;3.22;0.85;;;4.40;99.90;;;;;;5106664;28;20051;-75
2022/04/02 09:38:00;;;;;;;3.10;1.10;;;4.50;99.90;;;;;;5107904;28;20074;-75
2022/04/02 09:40:38;;;;;;;1.75;1.10;;;4.40;99.90;;;;;;5106791;28;20039;-77
2022/04/02 09:43:16;;;;;;;4.78;1.60;;;4.40;99.90;;;;;;5108020;28;20036;-77
2022/04/02 09:46:12;;;;;;;1.70;0.95;;;4.60;99.90;;;;;;5120453;27;20039;-77
2022/04/02 09:48:54;;;;;;;4.88;1.33;;;4.60;99.90;;;;;;5123361;28;20124;-75
2022/04/02 09:51:23;;;;;;;1.85;0.60;;;5.10;99.90;;;;;;5116203;28;20394;-76
2022/04/02 09:54:02;;;;;;;2.45;0.98;;;5.10;99.90;;;;;;5105931;27;20088;-75
2022/04/02 09:56:39;;;;;;;3.25;1.00;;;5.00;99.90;;;;;;5107198;28;20501;-77
2022/04/02 09:59:40;;;;;;;8.63;1.67;;;4.70;99.90;;;;;;5110277;27;20055;-77
2022/04/02 10:02:06;;;;;;;3.22;0.70;;;4.70;99.90;;;;;;5086976;28;20059;-79
2022/04/02 10:04:50;;;;;;;2.88;1.20;;;4.60;99.90;;;;;;5110516;28;20052;-79
2022/04/02 10:07:28;;;;;;;1.40;0.65;;;4.60;99.90;;;;;;5114349;28;20027;-79
2022/04/02 10:09:56;;;;;;;3.60;0.82;;;5.00;99.90;;;;;;5104914;28;20051;-78
2022/04/02 10:12:27;;;;;;;5.05;2.03;;;5.30;99.90;;;;;;5091758;28;20032;-78
2022/04/02 10:14:58;;;;;;;8.77;1.02;;;5.50;99.90;;;;;;5110990;27;20497;-78
2022/04/02 10:17:28;;;;;;;7.75;1.90;;;5.70;99.90;;;;;;5112749;28;20046;-78
2022/04/02 10:19:58;;;;;;;;;;;5.70;99.90;;;;;;5093558;27;20108;-79
2022/04/02 10:22:42;;;;;;;2.20;0.80;;;5.50;99.90;;;;;;5094243;28;19928;-79
2022/04/02 10:25:11;;;;;;;2.65;1.45;;;5.20;99.90;;;;;;5106806;28;20345;-78
2022/04/02 10:27:41;;;;;;;2.80;0.90;;;5.20;99.90;;;;;;5101691;27;20375;-78
2022/04/02 10:30:13;;;;;;;9.27;1.77;;;4.90;99.90;;;;;;5104280;28;20043;-78
2022/04/02 10:33:46;;;;;;;5.80;0.85;;;5.10;99.90;;;;;;5101956;28;20052;-78
2022/04/02 10:35:49;;;;;;;1.65;1.23;;;5.10;99.90;;;;;;5101335;28;20164;-78
2022/04/02 10:38:32;;;;;;;3.05;1.38;;;5.00;99.90;;;;;;5106131;28;20386;-78
2022/04/02 10:40:58;;;;;;;5.53;1.73;;;4.90;99.90;;;;;;5096466;28;20039;-79
2022/04/02 10:43:29;;;;;;;2.75;1.25;;;5.10;99.90;;;;;;5106333;28;20135;-78
2022/04/02 10:45:56;;;;;;;3.58;1.27;;;5.00;99.90;;;;;;5108734;27;20333;-78
2022/04/02 10:48:39;;;;;;;1.17;1.05;;;5.10;99.90;;;;;;5111163;27;20040;-78
2022/04/02 10:51:08;;;;;;;6.68;1.45;;;5.10;99.90;;;;;;5102729;28;20149;-77
2022/04/02 10:53:41;;;;;;;1.92;1.30;;;5.00;99.90;;;;;;5098676;28;20044;-78
2022/04/02 10:56:25;;;;;;;5.82;2.10;;;5.00;99.90;;;;;;5090084;28;20056;-78
2022/04/02 10:58:54;;;;;;;1.23;0.70;;;5.10;99.90;;;;;;5107412;27;20082;-80
2022/04/02 11:01:24;;;;;;;2.83;0.70;;;5.20;99.90;;;;;;5091912;28;20118;-77
2022/04/02 11:03:57;;;;;;;6.47;1.67;;;5.80;99.90;;;;;;5093268;27;20043;-78
2022/04/02 11:06:43;;;;;;;2.33;1.27;;;5.20;99.90;;;;;;5105081;27;20044;-79
2022/04/02 11:09:30;;;;;;;2.97;1.23;;;5.60;99.90;;;;;;5099989;28;20051;-80
2022/04/02 11:12:03;;;;;;;1.10;0.73;;;5.70;99.90;;;;;;5089049;28;20494;-78
2022/04/02 11:14:37;;;;;;;2.83;0.60;;;5.80;99.90;;;;;;5094393;28;20359;-78
2022/04/02 11:17:02;;;;;;;6.13;1.13;;;5.50;99.90;;;;;;5112235;27;20058;-79
2022/04/02 11:22:29;;;;;;;4.05;1.35;;;5.70;99.90;;;;;;5107677;28;20406;-78
2022/04/02 11:25:11;;;;;;;2.10;0.60;;;5.50;99.90;;;;;;5097359;28;20105;-78
2022/04/02 11:27:38;;;;;;;11.90;1.67;;;5.60;99.90;;;;;;5113724;27;20043;-79
2022/04/02 11:30:05;;;;;;;0.80;0.50;;;5.90;99.90;;;;;;5112845;27;20084;-78
2022/04/02 11:32:38;;;;;;;1.52;0.60;;;6.10;99.90;;;;;;5110260;27;20108;-78
2022/04/02 11:35:07;;;;;;;1.65;0.90;;;6.20;99.90;;;;;;5108579;28;20047;-77
2022/04/02 11:37:44;;;;;;;4.68;1.77;;;6.20;99.90;;;;;;5111638;28;20123;-79
2022/04/02 11:40:14;;;;;;;2.78;0.60;;;6.30;99.90;;;;;;5107207;28;20075;-79
2022/04/02 11:42:46;;;;;;;1.48;0.75;;;6.20;99.90;;;;;;5110430;27;20104;-78
2022/04/02 11:45:17;;;;;;;4.75;0.70;;;6.00;99.90;;;;;;5110326;27;20027;-77
2022/04/02 11:47:49;;;;;;;4.78;1.35;;;6.00;99.90;;;;;;5099195;28;20071;-78
2022/04/02 11:50:24;;;;;;;9.48;1.92;;;5.90;99.90;;;;;;5107903;27;20043;-76
2022/04/02 11:52:55;;;;;;;2.30;1.02;;;6.00;99.90;;;;;;5112476;27;20069;-77
2022/04/02 11:55:23;;;;;;;1.40;0.63;;;6.00;99.90;;;;;;5088096;27;20040;-76
2022/04/02 11:58:02;;;;;;;0.95;0.60;;;5.90;99.90;;;;;;5088649;27;20040;-77
2022/04/02 12:00:33;;;;;;;4.35;1.05;;;5.80;99.90;;;;;;5096368;27;20036;-76
2022/04/02 12:02:59;;;;;;;;;;;6.30;99.90;;;;;;5097249;28;20483;-77
2022/04/02 12:05:36;;;;;;;0.93;0.60;;;6.20;99.90;;;;;;5092075;28;19920;-76
2022/04/02 12:08:02;;;;;;;5.45;0.90;;;6.20;99.90;;;;;;5090207;27;20106;-76
2022/04/02 12:10:28;;;;;;;9.07;1.27;;;6.40;99.90;;;;;;5088532;28;20048;-76
2022/04/02 12:12:58;;;;;;;3.88;1.33;;;6.30;99.90;;;;;;5090417;28;20059;-78
2022/04/02 12:15:25;;;;;;;3.05;1.33;;;6.20;99.90;;;;;;5091836;27;20123;-79
2022/04/02 12:17:52;;;;;;;6.03;0.70;;;5.90;99.90;;;;;;5089977;28;20087;-78
2022/04/02 12:20:33;;;;;;;1.65;1.10;;;5.80;99.90;;;;;;5106323;28;20036;-78
2022/04/02 12:23:10;;;;;;;1.67;0.70;;;6.10;99.90;;;;;;5104784;28;20492;-78
2022/04/02 12:25:37;;;;;;;8.90;1.15;;;6.40;99.90;;;;;;5109222;28;20062;-79
2022/04/02 12:28:19;;;;;;;4.90;1.90;;;6.60;99.90;;;;;;5101112;27;20039;-78
2022/04/02 12:30:48;;;;;;;1.27;0.50;;;6.80;99.90;;;;;;5109490;28;20507;-77
2022/04/02 12:33:20;;;;;;;1.95;0.82;;;6.30;99.90;;;;;;5104024;28;20121;-76
2022/04/02 12:35:57;;;;;;;3.22;1.27;;;5.70;99.90;;;;;;5104826;28;20105;-76
2022/04/02 12:38:34;;;;;;;3.70;1.63;;;5.70;99.90;;;;;;5105925;27;20036;-77
2022/04/02 12:41:01;;;;;;;4.82;1.48;;;5.70;99.90;;;;;;5107645;28;20097;-76
2022/04/02 12:43:33;;;;;;;1.30;1.08;;;5.80;99.90;;;;;;5098339;27;20379;-78
2022/04/02 12:46:00;;;;;;;0.57;0.57;;;6.10;99.90;;;;;;5104878;28;20398;-77
2022/04/02 12:48:39;;;;;;;7.53;1.85;;;6.50;99.90;;;;;;5106811;28;20038;-77
2022/04/02 12:51:05;;;;;;;1.23;0.60;;;6.20;99.50;;;;;;5107989;27;20027;-77
2022/04/02 12:53:34;;;;;;;2.20;0.60;;;6.30;99.60;;;;;;5105519;28;20050;-77
2022/04/02 12:56:05;;;;;;;2.00;1.17;;;6.60;98.50;;;;;;5101202;28;20046;-76
2022/04/02 12:58:37;;;;;;;1.55;0.50;;;6.70;99.90;;;;;;5102565;28;20044;-79
2022/04/02 13:01:21;;;;;;;1.73;0.70;;;6.50;97.40;;;;;;5083775;28;20055;-81
2022/04/02 13:04:08;;;;;;;4.40;0.70;;;6.40;96.30;;;;;;5100672;27;20046;-80
2022/04/02 13:06:45;;;;;;;2.15;1.00;;;6.00;97.40;;;;;;5110220;27;20043;-78
2022/04/02 13:09:19;;;;;;;1.65;0.70;;;5.90;99.20;;;;;;5095486;27;20047;-79
2022/04/02 13:11:53;;;;;;;2.28;0.90;;;5.80;99.90;;;;;;5109046;28;20050;-76
2022/04/02 13:14:38;;;;;;;2.70;0.60;;;6.20;99.90;;;;;;5089717;28;20075;-78
2022/04/02 13:17:12;;;;;;;3.05;1.10;;;6.20;99.90;;;;;;5091950;27;21092;-76